SWA504 KMSY-KDAL
Flight info
| Callsign | SWA504 |
|---|---|
| Flight time | 1h 13m |
| Altitude | 34000 |
| Route | AEX PNUTS REDDN4 |
| Aircraft | B738/M-SDE2E3FGHIRWXY/LB1 |
Departure
| Time | 2026-05-06 08:30 |
|---|---|
| Airport | Louis Armstrong New Orleans International Airport (KMSY) |
Arrival
| Time | 2026-05-06 09:43 |
|---|---|
| Airport | Dallas Love Field (KDAL) |
| Time | Latitude | Longitude | Altitude | Speed | Heading |
|---|---|---|---|---|---|
| 2026-05-06 08:09 | 29.99416 | -90.25611 | 11 ft | 0 kts | 284° |
| 2026-05-06 08:19 | 29.99415 | -90.25604 | 11 ft | 2 kts | 285° |
| 2026-05-06 08:19 | 29.99412 | -90.25589 | 11 ft | 0 kts | 284° |
| 2026-05-06 08:19 | 29.99410 | -90.25577 | 11 ft | 2 kts | 263° |
| 2026-05-06 08:20 | 29.99415 | -90.25561 | 11 ft | 2 kts | 229° |
| 2026-05-06 08:20 | 29.99427 | -90.25551 | 11 ft | 2 kts | 194° |
| 2026-05-06 08:20 | 29.99434 | -90.25550 | 11 ft | 1 kts | 178° |
| 2026-05-06 08:20 | 29.99439 | -90.25550 | 11 ft | 0 kts | 183° |
| 2026-05-06 08:23 | 29.99436 | -90.25550 | 11 ft | 2 kts | 183° |
| 2026-05-06 08:23 | 29.99377 | -90.25553 | 11 ft | 11 kts | 182° |
| 2026-05-06 08:24 | 29.99297 | -90.25559 | 11 ft | 11 kts | 184° |
| 2026-05-06 08:24 | 29.99222 | -90.25578 | 11 ft | 11 kts | 222° |
| 2026-05-06 08:24 | 29.99215 | -90.25688 | 11 ft | 16 kts | 278° |
| 2026-05-06 08:24 | 29.99245 | -90.25810 | 11 ft | 15 kts | 304° |
| 2026-05-06 08:25 | 29.99329 | -90.25883 | 11 ft | 15 kts | 308° |
| 2026-05-06 08:25 | 29.99374 | -90.26027 | 11 ft | 23 kts | 285° |
| 2026-05-06 08:25 | 29.99419 | -90.26209 | 11 ft | 23 kts | 285° |
| 2026-05-06 08:25 | 29.99457 | -90.26383 | 11 ft | 22 kts | 283° |
| 2026-05-06 08:26 | 29.99501 | -90.26551 | 11 ft | 21 kts | 286° |
| 2026-05-06 08:26 | 29.99537 | -90.26712 | 11 ft | 20 kts | 284° |
| 2026-05-06 08:26 | 29.99574 | -90.26868 | 11 ft | 19 kts | 287° |
| 2026-05-06 08:26 | 29.99614 | -90.27025 | 11 ft | 22 kts | 285° |
| 2026-05-06 08:27 | 29.99659 | -90.27213 | 11 ft | 24 kts | 285° |
| 2026-05-06 08:27 | 29.99701 | -90.27398 | 11 ft | 23 kts | 283° |
| 2026-05-06 08:27 | 29.99746 | -90.27573 | 11 ft | 22 kts | 287° |
| 2026-05-06 08:27 | 29.99788 | -90.27743 | 11 ft | 21 kts | 285° |
| 2026-05-06 08:28 | 29.99825 | -90.27906 | 11 ft | 20 kts | 283° |
| 2026-05-06 08:28 | 29.99858 | -90.28033 | 11 ft | 10 kts | 288° |
| 2026-05-06 08:28 | 29.99846 | -90.28104 | 11 ft | 9 kts | 218° |
| 2026-05-06 08:28 | 29.99780 | -90.28127 | 11 ft | 12 kts | 193° |
| 2026-05-06 08:29 | 29.99699 | -90.28149 | 11 ft | 11 kts | 194° |
| 2026-05-06 08:29 | 29.99645 | -90.28111 | 11 ft | 10 kts | 106° |
| 2026-05-06 08:29 | 29.99610 | -90.27962 | 11 ft | 43 kts | 105° |
| 2026-05-06 08:29 | 29.99474 | -90.27393 | 11 ft | 101 kts | 106° |
| 2026-05-06 08:30 | 29.99239 | -90.26411 | 11 ft | 149 kts | 105° |
| 2026-05-06 08:30 | 29.98942 | -90.25150 | 198 ft | 169 kts | 108° |
| 2026-05-06 08:30 | 29.98637 | -90.23855 | 701 ft | 173 kts | 109° |
| 2026-05-06 08:30 | 29.98319 | -90.22465 | 1150 ft | 182 kts | 109° |
| 2026-05-06 08:31 | 29.98012 | -90.21016 | 1589 ft | 191 kts | 109° |
| 2026-05-06 08:31 | 29.97687 | -90.19504 | 1971 ft | 201 kts | 110° |
| 2026-05-06 08:31 | 29.97309 | -90.17880 | 2203 ft | 221 kts | 111° |
| 2026-05-06 08:31 | 29.97045 | -90.16056 | 2498 ft | 244 kts | 95° |
| 2026-05-06 08:32 | 29.97294 | -90.14048 | 2951 ft | 261 kts | 76° |
| 2026-05-06 08:32 | 29.98177 | -90.12157 | 3290 ft | 283 kts | 52° |
| 2026-05-06 08:32 | 29.99637 | -90.10616 | 3976 ft | 285 kts | 35° |
| 2026-05-06 08:32 | 30.01384 | -90.09468 | 4547 ft | 290 kts | 22° |
| 2026-05-06 08:33 | 30.03332 | -90.08912 | 5177 ft | 289 kts | 2° |
| 2026-05-06 08:33 | 30.05284 | -90.08810 | 5938 ft | 284 kts | 359° |
| 2026-05-06 08:33 | 30.07296 | -90.08746 | 6483 ft | 289 kts | 359° |
| 2026-05-06 08:33 | 30.09290 | -90.08664 | 7146 ft | 291 kts | 360° |
| 2026-05-06 08:34 | 30.11351 | -90.08518 | 7622 ft | 299 kts | 0° |
| 2026-05-06 08:34 | 30.15067 | -90.10015 | 8772 ft | 287 kts | 306° |
| 2026-05-06 08:34 | 30.16026 | -90.11961 | 9381 ft | 282 kts | 288° |
| 2026-05-06 08:35 | 30.16715 | -90.14098 | 9972 ft | 285 kts | 287° |
| 2026-05-06 08:35 | 30.17475 | -90.16225 | 10532 ft | 292 kts | 291° |
| 2026-05-06 08:35 | 30.18395 | -90.18396 | 10888 ft | 307 kts | 294° |
| 2026-05-06 08:35 | 30.19417 | -90.20586 | 11206 ft | 321 kts | 295° |
| 2026-05-06 08:36 | 30.20530 | -90.22892 | 11526 ft | 335 kts | 296° |
| 2026-05-06 08:36 | 30.21690 | -90.25285 | 11919 ft | 345 kts | 296° |
| 2026-05-06 08:36 | 30.22863 | -90.27716 | 12585 ft | 346 kts | 296° |
| 2026-05-06 08:36 | 30.24020 | -90.30128 | 13216 ft | 348 kts | 296° |
| 2026-05-06 08:37 | 30.25187 | -90.32577 | 13902 ft | 349 kts | 296° |
| 2026-05-06 08:37 | 30.26359 | -90.35044 | 14526 ft | 352 kts | 296° |
| 2026-05-06 08:37 | 30.27537 | -90.37525 | 15232 ft | 353 kts | 296° |
| 2026-05-06 08:37 | 30.28701 | -90.39981 | 15880 ft | 355 kts | 296° |
| 2026-05-06 08:38 | 30.29889 | -90.42489 | 16515 ft | 356 kts | 296° |
| 2026-05-06 08:38 | 30.31081 | -90.45007 | 17122 ft | 359 kts | 296° |
| 2026-05-06 08:38 | 30.32282 | -90.47545 | 17764 ft | 361 kts | 296° |
| 2026-05-06 08:38 | 30.33488 | -90.50095 | 18398 ft | 362 kts | 296° |
| 2026-05-06 08:39 | 30.34676 | -90.52608 | 19028 ft | 362 kts | 296° |
| 2026-05-06 08:39 | 30.35885 | -90.55165 | 19637 ft | 364 kts | 296° |
| 2026-05-06 08:39 | 30.37102 | -90.57741 | 20194 ft | 366 kts | 296° |
| 2026-05-06 08:39 | 30.38324 | -90.60326 | 20799 ft | 367 kts | 296° |
| 2026-05-06 08:40 | 30.39551 | -90.62927 | 21363 ft | 369 kts | 296° |
| 2026-05-06 08:40 | 30.40768 | -90.65507 | 21904 ft | 371 kts | 295° |
| 2026-05-06 08:40 | 30.42009 | -90.68143 | 22435 ft | 373 kts | 295° |
| 2026-05-06 08:40 | 30.43250 | -90.70778 | 23027 ft | 373 kts | 295° |
| 2026-05-06 08:41 | 30.44498 | -90.73428 | 23528 ft | 376 kts | 295° |
| 2026-05-06 08:41 | 30.45748 | -90.76086 | 24036 ft | 377 kts | 295° |
| 2026-05-06 08:41 | 30.46989 | -90.78727 | 24512 ft | 379 kts | 295° |
| 2026-05-06 08:41 | 30.48251 | -90.81415 | 24997 ft | 381 kts | 295° |
| 2026-05-06 08:42 | 30.49516 | -90.84109 | 25508 ft | 381 kts | 294° |
| 2026-05-06 08:42 | 30.50785 | -90.86812 | 25994 ft | 382 kts | 294° |
| 2026-05-06 08:42 | 30.52053 | -90.89517 | 26487 ft | 383 kts | 294° |
| 2026-05-06 08:42 | 30.53311 | -90.92205 | 26867 ft | 385 kts | 294° |
| 2026-05-06 08:43 | 30.54590 | -90.94940 | 27310 ft | 386 kts | 294° |
| 2026-05-06 08:43 | 30.55871 | -90.97683 | 27744 ft | 387 kts | 294° |
| 2026-05-06 08:43 | 30.57156 | -91.00432 | 28157 ft | 389 kts | 294° |
| 2026-05-06 08:43 | 30.58448 | -91.03199 | 28558 ft | 390 kts | 293° |
| 2026-05-06 08:44 | 30.59720 | -91.05926 | 28983 ft | 390 kts | 293° |
| 2026-05-06 08:44 | 30.61015 | -91.08704 | 29305 ft | 393 kts | 293° |
| 2026-05-06 08:44 | 30.62321 | -91.11510 | 29594 ft | 397 kts | 293° |
| 2026-05-06 08:44 | 30.63635 | -91.14334 | 30030 ft | 396 kts | 293° |
| 2026-05-06 08:45 | 30.64919 | -91.17088 | 30612 ft | 391 kts | 293° |
| 2026-05-06 08:45 | 30.66211 | -91.19862 | 31042 ft | 390 kts | 292° |
| 2026-05-06 08:45 | 30.67502 | -91.22639 | 31429 ft | 390 kts | 292° |
| 2026-05-06 08:45 | 30.68773 | -91.25378 | 31761 ft | 390 kts | 293° |
| 2026-05-06 08:46 | 30.70063 | -91.28162 | 32128 ft | 390 kts | 293° |
| 2026-05-06 08:46 | 30.71348 | -91.30935 | 32498 ft | 389 kts | 293° |
| 2026-05-06 08:46 | 30.72615 | -91.33670 | 32866 ft | 388 kts | 292° |
| 2026-05-06 08:46 | 30.73896 | -91.36439 | 33274 ft | 387 kts | 293° |
| 2026-05-06 08:47 | 30.75167 | -91.39187 | 33727 ft | 385 kts | 293° |
| 2026-05-06 08:47 | 30.76420 | -91.41896 | 33913 ft | 387 kts | 292° |
| 2026-05-06 08:47 | 30.77701 | -91.44673 | 33912 ft | 388 kts | 292° |
| 2026-05-06 08:48 | 30.80226 | -91.50138 | 33907 ft | 384 kts | 292° |
| 2026-05-06 08:48 | 30.82742 | -91.55608 | 33902 ft | 385 kts | 293° |
| 2026-05-06 08:49 | 30.85268 | -91.61102 | 33900 ft | 385 kts | 292° |
| 2026-05-06 08:49 | 30.87782 | -91.66576 | 33894 ft | 384 kts | 292° |
| 2026-05-06 08:50 | 30.90294 | -91.72056 | 33888 ft | 385 kts | 292° |
| 2026-05-06 08:50 | 30.92799 | -91.77524 | 33889 ft | 384 kts | 292° |
| 2026-05-06 08:51 | 30.95306 | -91.83003 | 33889 ft | 383 kts | 292° |
| 2026-05-06 08:51 | 30.97809 | -91.88479 | 33890 ft | 383 kts | 292° |
| 2026-05-06 08:52 | 31.00290 | -91.93926 | 33897 ft | 384 kts | 292° |
| 2026-05-06 08:52 | 31.02799 | -91.99432 | 33889 ft | 382 kts | 292° |
| 2026-05-06 08:53 | 31.05280 | -92.04885 | 33891 ft | 382 kts | 291° |
| 2026-05-06 08:53 | 31.07764 | -92.10353 | 33904 ft | 380 kts | 291° |
| 2026-05-06 08:54 | 31.10221 | -92.15778 | 33894 ft | 380 kts | 291° |
| 2026-05-06 08:54 | 31.12677 | -92.21207 | 33897 ft | 380 kts | 291° |
| 2026-05-06 08:55 | 31.15153 | -92.26683 | 33891 ft | 380 kts | 291° |
| 2026-05-06 08:55 | 31.17603 | -92.32108 | 33885 ft | 379 kts | 291° |
| 2026-05-06 08:56 | 31.20054 | -92.37546 | 33881 ft | 379 kts | 291° |
| 2026-05-06 08:56 | 31.22512 | -92.43006 | 33891 ft | 379 kts | 291° |
| 2026-05-06 08:57 | 31.24951 | -92.48431 | 33894 ft | 379 kts | 291° |
| 2026-05-06 08:57 | 31.27180 | -92.53973 | 33899 ft | 375 kts | 287° |
| 2026-05-06 08:58 | 31.29052 | -92.59591 | 33896 ft | 373 kts | 285° |
| 2026-05-06 08:58 | 31.30919 | -92.65269 | 33900 ft | 375 kts | 285° |
| 2026-05-06 08:59 | 31.32812 | -92.70919 | 33898 ft | 373 kts | 285° |
| 2026-05-06 08:59 | 31.34715 | -92.76539 | 33888 ft | 373 kts | 285° |
| 2026-05-06 09:00 | 31.36629 | -92.82190 | 33890 ft | 374 kts | 286° |
| 2026-05-06 09:00 | 31.38538 | -92.87830 | 33891 ft | 373 kts | 286° |
| 2026-05-06 09:01 | 31.40438 | -92.93449 | 33882 ft | 374 kts | 286° |
| 2026-05-06 09:01 | 31.42346 | -92.99095 | 33886 ft | 375 kts | 286° |
| 2026-05-06 09:02 | 31.44257 | -93.04756 | 33878 ft | 374 kts | 286° |
| 2026-05-06 09:02 | 31.46154 | -93.10391 | 33882 ft | 374 kts | 286° |
| 2026-05-06 09:03 | 31.48047 | -93.16026 | 33877 ft | 373 kts | 285° |
| 2026-05-06 09:03 | 31.49942 | -93.21678 | 33876 ft | 372 kts | 285° |
| 2026-05-06 09:04 | 31.51817 | -93.27284 | 33871 ft | 371 kts | 285° |
| 2026-05-06 09:04 | 31.53709 | -93.32951 | 33874 ft | 372 kts | 285° |
| 2026-05-06 09:05 | 31.55583 | -93.38563 | 33873 ft | 372 kts | 285° |
| 2026-05-06 09:05 | 31.57465 | -93.44214 | 33874 ft | 371 kts | 285° |
| 2026-05-06 09:06 | 31.59336 | -93.49843 | 33873 ft | 371 kts | 285° |
| 2026-05-06 09:06 | 31.61196 | -93.55423 | 33869 ft | 372 kts | 285° |
| 2026-05-06 09:07 | 31.63198 | -93.61051 | 33870 ft | 373 kts | 286° |
| 2026-05-06 09:07 | 31.65219 | -93.66619 | 33869 ft | 373 kts | 286° |
| 2026-05-06 09:08 | 31.67248 | -93.72240 | 33863 ft | 372 kts | 285° |
| 2026-05-06 09:08 | 31.69243 | -93.77798 | 33858 ft | 371 kts | 286° |
| 2026-05-06 09:09 | 31.71234 | -93.83384 | 33863 ft | 372 kts | 285° |
| 2026-05-06 09:09 | 31.73224 | -93.88983 | 33861 ft | 373 kts | 285° |
| 2026-05-06 09:10 | 31.75219 | -93.94593 | 33855 ft | 371 kts | 285° |
| 2026-05-06 09:10 | 31.77198 | -94.00173 | 33855 ft | 370 kts | 285° |
| 2026-05-06 09:11 | 31.79177 | -94.05765 | 33860 ft | 372 kts | 285° |
| 2026-05-06 09:11 | 31.81148 | -94.11345 | 33853 ft | 371 kts | 285° |
| 2026-05-06 09:12 | 31.83112 | -94.16909 | 33856 ft | 370 kts | 285° |
| 2026-05-06 09:12 | 31.85090 | -94.22526 | 33855 ft | 371 kts | 285° |
| 2026-05-06 09:13 | 31.87044 | -94.28081 | 33854 ft | 370 kts | 285° |
| 2026-05-06 09:13 | 31.89013 | -94.33684 | 33851 ft | 369 kts | 285° |
| 2026-05-06 09:14 | 31.90970 | -94.39259 | 33845 ft | 369 kts | 285° |
| 2026-05-06 09:14 | 31.92914 | -94.44827 | 33838 ft | 368 kts | 285° |
| 2026-05-06 09:15 | 31.94857 | -94.50382 | 33836 ft | 368 kts | 285° |
| 2026-05-06 09:15 | 31.96535 | -94.56048 | 33843 ft | 365 kts | 281° |
| 2026-05-06 09:16 | 31.97988 | -94.61768 | 33847 ft | 365 kts | 281° |
| 2026-05-06 09:16 | 31.99450 | -94.67441 | 33852 ft | 363 kts | 280° |
| 2026-05-06 09:17 | 32.00941 | -94.73107 | 33856 ft | 362 kts | 281° |
| 2026-05-06 09:17 | 32.02434 | -94.78742 | 33856 ft | 363 kts | 281° |
| 2026-05-06 09:18 | 32.03944 | -94.84430 | 33857 ft | 363 kts | 280° |
| 2026-05-06 09:18 | 32.05438 | -94.90074 | 33864 ft | 363 kts | 280° |
| 2026-05-06 09:19 | 32.06936 | -94.95754 | 33855 ft | 361 kts | 280° |
| 2026-05-06 09:19 | 32.07674 | -94.98545 | 33604 ft | 355 kts | 280° |
| 2026-05-06 09:19 | 32.08398 | -95.01284 | 33162 ft | 349 kts | 280° |
| 2026-05-06 09:19 | 32.09118 | -95.04008 | 32638 ft | 346 kts | 280° |
| 2026-05-06 09:20 | 32.09819 | -95.06677 | 32016 ft | 346 kts | 280° |
| 2026-05-06 09:20 | 32.10527 | -95.09383 | 31341 ft | 348 kts | 279° |
| 2026-05-06 09:20 | 32.11244 | -95.12132 | 30640 ft | 350 kts | 280° |
| 2026-05-06 09:20 | 32.11956 | -95.14861 | 29919 ft | 352 kts | 279° |
| 2026-05-06 09:21 | 32.12666 | -95.17582 | 29196 ft | 354 kts | 280° |
| 2026-05-06 09:21 | 32.13402 | -95.20413 | 28762 ft | 365 kts | 280° |
| 2026-05-06 09:21 | 32.14151 | -95.23321 | 28280 ft | 382 kts | 281° |
| 2026-05-06 09:21 | 32.14930 | -95.26324 | 27737 ft | 383 kts | 281° |
| 2026-05-06 09:22 | 32.15711 | -95.29297 | 27219 ft | 377 kts | 281° |
| 2026-05-06 09:22 | 32.16483 | -95.32220 | 26829 ft | 368 kts | 281° |
| 2026-05-06 09:22 | 32.17224 | -95.35010 | 26675 ft | 355 kts | 281° |
| 2026-05-06 09:22 | 32.17967 | -95.37789 | 26111 ft | 353 kts | 281° |
| 2026-05-06 09:23 | 32.18699 | -95.40530 | 25602 ft | 349 kts | 281° |
| 2026-05-06 09:23 | 32.19421 | -95.43239 | 25112 ft | 344 kts | 281° |
| 2026-05-06 09:23 | 32.20123 | -95.45878 | 24644 ft | 340 kts | 282° |
| 2026-05-06 09:23 | 32.20827 | -95.48523 | 24171 ft | 336 kts | 281° |
| 2026-05-06 09:24 | 32.21520 | -95.51134 | 23714 ft | 332 kts | 281° |
| 2026-05-06 09:24 | 32.22202 | -95.53715 | 23253 ft | 328 kts | 282° |
| 2026-05-06 09:24 | 32.22876 | -95.56267 | 22788 ft | 324 kts | 281° |
| 2026-05-06 09:24 | 32.23534 | -95.58763 | 22336 ft | 321 kts | 281° |
| 2026-05-06 09:25 | 32.24194 | -95.61258 | 21885 ft | 317 kts | 281° |
| 2026-05-06 09:25 | 32.24846 | -95.63724 | 21441 ft | 313 kts | 282° |
| 2026-05-06 09:25 | 32.25492 | -95.66163 | 21002 ft | 310 kts | 281° |
| 2026-05-06 09:25 | 32.26129 | -95.68578 | 20559 ft | 307 kts | 282° |
| 2026-05-06 09:26 | 32.26753 | -95.70945 | 20125 ft | 309 kts | 281° |
| 2026-05-06 09:26 | 32.27401 | -95.73431 | 19675 ft | 323 kts | 282° |
| 2026-05-06 09:26 | 32.28063 | -95.75969 | 19194 ft | 323 kts | 282° |
| 2026-05-06 09:26 | 32.28730 | -95.78493 | 18717 ft | 320 kts | 282° |
| 2026-05-06 09:27 | 32.29382 | -95.80947 | 18252 ft | 316 kts | 282° |
| 2026-05-06 09:27 | 32.30033 | -95.83408 | 17800 ft | 312 kts | 282° |
| 2026-05-06 09:27 | 32.30673 | -95.85835 | 17413 ft | 306 kts | 282° |
| 2026-05-06 09:27 | 32.31298 | -95.88220 | 16978 ft | 303 kts | 282° |
| 2026-05-06 09:28 | 32.31915 | -95.90582 | 16532 ft | 300 kts | 282° |
| 2026-05-06 09:28 | 32.32518 | -95.92893 | 16109 ft | 297 kts | 282° |
| 2026-05-06 09:28 | 32.33123 | -95.95216 | 15663 ft | 295 kts | 281° |
| 2026-05-06 09:28 | 32.33726 | -95.97533 | 15218 ft | 293 kts | 281° |
| 2026-05-06 09:29 | 32.34323 | -95.99842 | 14788 ft | 306 kts | 282° |
| 2026-05-06 09:29 | 32.34954 | -96.02300 | 14293 ft | 315 kts | 281° |
| 2026-05-06 09:29 | 32.35596 | -96.04766 | 13830 ft | 312 kts | 282° |
| 2026-05-06 09:29 | 32.36228 | -96.07182 | 13391 ft | 309 kts | 282° |
| 2026-05-06 09:30 | 32.36860 | -96.09602 | 12919 ft | 307 kts | 282° |
| 2026-05-06 09:30 | 32.37482 | -96.11993 | 12474 ft | 305 kts | 282° |
| 2026-05-06 09:30 | 32.38101 | -96.14387 | 12022 ft | 303 kts | 283° |
| 2026-05-06 09:30 | 32.38710 | -96.16743 | 11563 ft | 301 kts | 283° |
| 2026-05-06 09:31 | 32.39320 | -96.19104 | 11131 ft | 299 kts | 284° |
| 2026-05-06 09:31 | 32.39917 | -96.21416 | 10684 ft | 297 kts | 284° |
| 2026-05-06 09:31 | 32.40513 | -96.23721 | 10394 ft | 289 kts | 284° |
| 2026-05-06 09:31 | 32.41096 | -96.25967 | 10274 ft | 277 kts | 284° |
| 2026-05-06 09:32 | 32.41643 | -96.28082 | 10171 ft | 264 kts | 284° |
| 2026-05-06 09:32 | 32.42167 | -96.30119 | 10071 ft | 252 kts | 284° |
| 2026-05-06 09:32 | 32.42665 | -96.32061 | 9841 ft | 247 kts | 284° |
| 2026-05-06 09:32 | 32.43162 | -96.34002 | 9462 ft | 248 kts | 284° |
| 2026-05-06 09:33 | 32.43673 | -96.35960 | 9126 ft | 246 kts | 287° |
| 2026-05-06 09:33 | 32.44418 | -96.37755 | 8970 ft | 250 kts | 303° |
| 2026-05-06 09:33 | 32.45645 | -96.39326 | 8972 ft | 264 kts | 312° |
| 2026-05-06 09:33 | 32.46985 | -96.40803 | 8966 ft | 264 kts | 313° |
| 2026-05-06 09:34 | 32.48319 | -96.42290 | 8963 ft | 264 kts | 311° |
| 2026-05-06 09:34 | 32.49643 | -96.43820 | 8958 ft | 265 kts | 311° |
| 2026-05-06 09:34 | 32.50939 | -96.45355 | 8958 ft | 264 kts | 311° |
| 2026-05-06 09:34 | 32.52232 | -96.46894 | 8824 ft | 259 kts | 310° |
| 2026-05-06 09:35 | 32.53476 | -96.48377 | 8539 ft | 256 kts | 310° |
| 2026-05-06 09:35 | 32.54731 | -96.49874 | 8213 ft | 254 kts | 310° |
| 2026-05-06 09:35 | 32.55978 | -96.51361 | 7885 ft | 252 kts | 310° |
| 2026-05-06 09:35 | 32.57208 | -96.52827 | 7560 ft | 250 kts | 310° |
| 2026-05-06 09:36 | 32.58240 | -96.54426 | 7246 ft | 244 kts | 297° |
| 2026-05-06 09:36 | 32.59130 | -96.56141 | 6945 ft | 242 kts | 302° |
| 2026-05-06 09:36 | 32.60185 | -96.57680 | 6642 ft | 242 kts | 309° |
| 2026-05-06 09:36 | 32.61367 | -96.59091 | 6337 ft | 242 kts | 312° |
| 2026-05-06 09:37 | 32.62580 | -96.60448 | 6053 ft | 238 kts | 313° |
| 2026-05-06 09:37 | 32.63726 | -96.61737 | 6012 ft | 219 kts | 312° |
| 2026-05-06 09:37 | 32.64809 | -96.62974 | 5795 ft | 210 kts | 312° |
| 2026-05-06 09:37 | 32.65846 | -96.64172 | 5473 ft | 207 kts | 312° |
| 2026-05-06 09:38 | 32.66868 | -96.65346 | 5175 ft | 203 kts | 311° |
| 2026-05-06 09:38 | 32.67873 | -96.66511 | 4873 ft | 200 kts | 311° |
| 2026-05-06 09:38 | 32.68850 | -96.67645 | 4597 ft | 196 kts | 312° |
| 2026-05-06 09:38 | 32.69826 | -96.68767 | 4314 ft | 194 kts | 313° |
| 2026-05-06 09:39 | 32.70796 | -96.69866 | 4037 ft | 191 kts | 313° |
| 2026-05-06 09:39 | 32.71746 | -96.70956 | 3769 ft | 188 kts | 313° |
| 2026-05-06 09:39 | 32.72679 | -96.72028 | 3501 ft | 186 kts | 314° |
| 2026-05-06 09:39 | 32.73604 | -96.73087 | 3241 ft | 184 kts | 313° |
| 2026-05-06 09:40 | 32.74520 | -96.74139 | 2979 ft | 181 kts | 315° |
| 2026-05-06 09:40 | 32.75425 | -96.75178 | 2726 ft | 179 kts | 315° |
| 2026-05-06 09:40 | 32.77155 | -96.77168 | 2255 ft | 162 kts | 317° |
| 2026-05-06 09:41 | 32.77931 | -96.78059 | 2030 ft | 151 kts | 317° |
| 2026-05-06 09:41 | 32.78671 | -96.78910 | 1817 ft | 146 kts | 319° |
| 2026-05-06 09:41 | 32.79396 | -96.79742 | 1615 ft | 146 kts | 319° |
| 2026-05-06 09:41 | 32.80123 | -96.80579 | 1419 ft | 145 kts | 319° |
| 2026-05-06 09:42 | 32.80863 | -96.81419 | 1231 ft | 145 kts | 319° |
| 2026-05-06 09:42 | 32.81582 | -96.82240 | 1029 ft | 145 kts | 318° |
| 2026-05-06 09:42 | 32.82308 | -96.83089 | 817 ft | 146 kts | 318° |
| 2026-05-06 09:42 | 32.83029 | -96.83915 | 622 ft | 144 kts | 317° |
| 2026-05-06 09:43 | 32.83738 | -96.84735 | 479 ft | 135 kts | 317° |
| 2026-05-06 09:43 | 32.84256 | -96.85328 | 476 ft | 66 kts | 315° |
| 2026-05-06 09:43 | 32.84501 | -96.85615 | 475 ft | 47 kts | 316° |
| 2026-05-06 09:43 | 32.84691 | -96.85835 | 475 ft | 22 kts | 316° |
| 2026-05-06 09:44 | 32.84772 | -96.85898 | 475 ft | 12 kts | 2° |
| 2026-05-06 09:44 | 32.84832 | -96.85847 | 477 ft | 9 kts | 59° |
| 2026-05-06 09:44 | 32.84853 | -96.85770 | 478 ft | 9 kts | 107° |
| 2026-05-06 09:44 | 32.84806 | -96.85712 | 478 ft | 10 kts | 138° |
| 2026-05-06 09:45 | 32.84743 | -96.85645 | 478 ft | 13 kts | 138° |
| 2026-05-06 09:45 | 32.84679 | -96.85565 | 478 ft | 13 kts | 133° |
| 2026-05-06 09:45 | 32.84623 | -96.85484 | 478 ft | 12 kts | 112° |
| 2026-05-06 09:45 | 32.84607 | -96.85384 | 478 ft | 12 kts | 108° |
| 2026-05-06 09:46 | 32.84590 | -96.85329 | 478 ft | 5 kts | 108° |
| 2026-05-06 09:46 | 32.84589 | -96.85286 | 478 ft | 4 kts | 84° |
| 2026-05-06 09:46 | 32.84593 | -96.85250 | 478 ft | 3 kts | 81° |
| 2026-05-06 09:46 | 32.84595 | -96.85234 | 478 ft | 0 kts | 81° |
| 2026-05-06 09:47 | 32.84596 | -96.85227 | 478 ft | 0 kts | 81° |